Time;durP1;ratioP1;P1;durP2;ratioP2;P2;SDS_P1;SDS_P2;PMS_P1;PMS_P2;Temp;Humidity;BMP_temperature;BMP_pressure;BME280_temperature;BME280_humidity;BME280_pressure;Samples;Min_cycle;Max_cycle;Signal;HPM_P1;HPM_P2
2022/01/28 00:00:49;;;;;;;2.33;0.90;;;4.20;99.90;;;;;;4989651;28;20672;-75
2022/01/28 00:03:16;;;;;;;6.23;1.27;;;4.20;99.90;;;;;;4971795;28;20690;-77
2022/01/28 00:05:42;;;;;;;5.50;1.70;;;4.20;99.90;;;;;;4988127;28;20204;-77
2022/01/28 00:08:08;;;;;;;9.27;1.30;;;4.10;99.90;;;;;;4989613;28;20753;-77
2022/01/28 00:10:38;;;;;;;5.20;1.10;;;4.10;99.90;;;;;;4989646;28;21033;-77
2022/01/28 00:13:21;;;;;;;5.27;1.50;;;4.10;99.90;;;;;;4988669;28;20187;-77
2022/01/28 00:39:25;;;;;;;8.53;1.90;;;4.00;99.90;;;;;;4988962;28;20187;-76
2022/01/28 00:41:51;;;;;;;6.23;1.50;;;4.00;99.90;;;;;;4989492;28;20188;-77
2022/01/28 00:44:16;;;;;;;11.37;2.20;;;3.90;99.90;;;;;;4970838;28;20191;-79
2022/01/28 00:46:42;;;;;;;4.00;1.20;;;3.90;99.90;;;;;;4971644;28;20599;-78
2022/01/28 00:49:08;;;;;;;8.73;1.30;;;3.90;99.90;;;;;;4988766;28;20208;-76
2022/01/28 00:51:33;;;;;;;6.80;1.07;;;3.90;99.90;;;;;;4971818;28;20180;-79
2022/01/28 00:53:59;;;;;;;6.33;1.50;;;3.80;99.90;;;;;;4988802;28;20266;-77
2022/01/28 00:56:25;;;;;;;6.93;1.90;;;3.80;99.90;;;;;;4989690;28;20208;-77
2022/01/28 00:58:50;;;;;;;6.63;2.13;;;3.70;99.90;;;;;;4988819;28;20185;-76
2022/01/28 01:01:16;;;;;;;7.70;1.90;;;3.70;99.90;;;;;;4988888;28;20224;-77
2022/01/28 01:03:41;;;;;;;6.00;2.03;;;3.80;99.90;;;;;;4988201;28;20243;-79
2022/01/28 01:06:07;;;;;;;7.90;1.53;;;3.80;99.90;;;;;;4988654;28;20210;-77
2022/01/28 01:08:33;;;;;;;8.57;1.80;;;3.90;99.90;;;;;;4987949;28;20745;-76
2022/01/28 01:10:59;;;;;;;5.90;1.23;;;3.90;99.90;;;;;;4988270;28;20251;-77
2022/01/28 01:13:24;;;;;;;6.20;1.43;;;3.90;99.90;;;;;;4988367;28;20603;-77
2022/01/28 01:15:55;;;;;;;8.80;1.50;;;3.90;99.90;;;;;;4988746;28;20324;-76
2022/01/28 01:18:27;;;;;;;5.67;1.53;;;3.90;99.90;;;;;;4971955;28;20189;-80
2022/01/28 01:21:07;;;;;;;8.47;1.50;;;3.90;99.90;;;;;;4971256;28;20180;-80
2022/01/28 01:23:36;;;;;;;9.13;1.10;;;3.90;99.90;;;;;;4973181;28;20180;-78
2022/01/28 01:28:33;;;;;;;2.73;1.10;;;3.90;99.90;;;;;;4989334;28;20232;-77
2022/01/28 01:31:01;;;;;;;7.43;1.07;;;4.00;99.90;;;;;;5003330;28;20713;-77
2022/01/28 01:33:30;;;;;;;6.87;1.40;;;3.90;99.90;;;;;;4988575;28;20646;-77
2022/01/28 01:35:57;;;;;;;10.90;1.57;;;3.90;99.90;;;;;;4971481;28;20204;-76
2022/01/28 01:38:26;;;;;;;7.40;1.70;;;4.00;99.90;;;;;;4989080;28;20721;-77
2022/01/28 01:40:55;;;;;;;9.43;1.60;;;4.00;99.90;;;;;;4971127;28;20630;-78
2022/01/28 01:46:11;;;;;;;4.60;1.10;;;4.10;99.90;;;;;;4989020;28;20266;-77
2022/01/28 01:54:05;;;;;;;4.93;1.47;;;4.10;99.90;;;;;;4986795;28;20187;-78
2022/01/28 01:56:33;;;;;;;9.87;1.77;;;4.10;99.90;;;;;;4970570;28;20765;-80
2022/01/28 01:58:59;;;;;;;7.63;1.50;;;4.10;99.90;;;;;;4987329;28;20188;-77
2022/01/28 02:01:25;;;;;;;9.13;2.23;;;4.10;99.90;;;;;;4970150;28;20271;-78
2022/01/28 02:03:51;;;;;;;8.10;1.40;;;4.10;99.90;;;;;;4987048;28;20267;-76
2022/01/28 02:06:19;;;;;;;6.47;1.67;;;4.10;99.90;;;;;;4987627;28;20690;-77
2022/01/28 02:08:45;;;;;;;13.20;1.83;;;4.20;99.90;;;;;;4987094;28;20207;-78
2022/01/28 02:11:11;;;;;;;7.43;1.70;;;4.20;99.90;;;;;;4987816;28;20562;-77
2022/01/28 02:13:39;;;;;;;5.60;1.80;;;4.20;99.90;;;;;;4986231;28;20188;-77
2022/01/28 02:16:05;;;;;;;5.97;1.67;;;4.10;99.90;;;;;;4987280;28;20247;-76
2022/01/28 02:18:31;;;;;;;7.67;1.73;;;4.10;99.90;;;;;;4987846;28;20659;-77
2022/01/28 02:21:05;;;;;;;9.20;1.67;;;4.10;99.90;;;;;;4986920;28;20563;-77
2022/01/28 02:23:31;;;;;;;9.30;2.60;;;4.10;99.90;;;;;;4987117;28;20181;-78
2022/01/28 02:25:58;;;;;;;6.10;2.03;;;4.10;99.90;;;;;;4988778;28;20267;-77
2022/01/28 02:28:26;;;;;;;7.40;1.10;;;4.00;99.90;;;;;;4971084;28;20207;-77
2022/01/28 02:31:09;;;;;;;11.93;1.67;;;4.00;99.90;;;;;;4987331;28;20238;-78
2022/01/28 02:33:35;;;;;;;7.90;1.27;;;4.00;99.90;;;;;;4987928;28;20666;-79
2022/01/28 02:36:05;;;;;;;7.87;1.50;;;4.00;99.90;;;;;;4970576;28;20355;-78
2022/01/28 02:38:32;;;;;;;8.07;1.83;;;4.00;99.90;;;;;;4988045;28;20172;-77
2022/01/28 02:41:00;;;;;;;7.10;1.20;;;4.00;99.90;;;;;;4986560;28;20289;-77
2022/01/28 02:45:56;;;;;;;9.00;1.50;;;4.00;99.90;;;;;;4987788;28;20674;-78
2022/01/28 02:48:28;;;;;;;6.00;1.60;;;3.90;99.90;;;;;;4986956;28;20192;-78
2022/01/28 02:53:38;;;;;;;7.13;1.70;;;3.80;99.90;;;;;;4986702;28;20175;-76
2022/01/28 02:56:12;;;;;;;6.67;1.70;;;3.80;99.90;;;;;;4986223;28;20219;-77
2022/01/28 02:58:39;;;;;;;7.20;2.10;;;3.90;99.90;;;;;;4969119;28;20180;-78
2022/01/28 03:01:04;;;;;;;8.43;1.27;;;3.90;99.90;;;;;;4989368;28;20184;-76
2022/01/28 03:03:30;;;;;;;10.60;1.90;;;3.90;99.90;;;;;;4990271;28;20318;-78
2022/01/28 03:05:56;;;;;;;10.93;2.43;;;3.90;99.90;;;;;;4985812;28;20222;-77
2022/01/28 03:08:25;;;;;;;9.90;1.57;;;3.80;99.90;;;;;;4985096;28;20196;-77
2022/01/28 03:16:10;;;;;;;6.63;1.70;;;3.70;99.90;;;;;;4985555;28;20285;-76
2022/01/28 03:19:16;;;;;;;9.63;1.43;;;3.80;99.90;;;;;;4985549;28;20176;-76
2022/01/28 03:23:58;;;;;;;7.73;1.57;;;3.80;99.90;;;;;;4984245;28;20600;-76
2022/01/28 03:26:26;;;;;;;11.07;2.03;;;3.80;99.90;;;;;;4985173;28;20266;-77
2022/01/28 03:28:52;;;;;;;14.00;2.83;;;3.80;99.90;;;;;;4967727;28;20346;-76
2022/01/28 03:31:18;;;;;;;10.30;2.00;;;3.90;99.90;;;;;;4984694;28;20188;-76
2022/01/28 03:33:44;;;;;;;8.60;1.90;;;3.90;99.90;;;;;;4986233;28;20182;-78
2022/01/28 03:36:11;;;;;;;7.73;1.90;;;3.90;99.90;;;;;;4985695;28;20208;-78
2022/01/28 03:38:38;;;;;;;9.00;2.23;;;3.80;99.90;;;;;;4986365;28;20665;-78
2022/01/28 03:41:16;;;;;;;21.13;3.10;;;3.90;99.90;;;;;;4986325;28;20674;-75
2022/01/28 03:43:42;;;;;;;8.10;2.30;;;3.90;99.90;;;;;;4967865;28;20180;-78
2022/01/28 03:46:07;;;;;;;6.57;2.23;;;4.00;99.90;;;;;;4983911;28;20343;-78
2022/01/28 03:48:33;;;;;;;10.03;2.77;;;4.00;99.90;;;;;;4987213;28;20215;-77
2022/01/28 03:50:59;;;;;;;7.47;1.73;;;4.00;99.90;;;;;;4988483;28;20207;-77
2022/01/28 03:53:24;;;;;;;7.77;1.80;;;4.00;99.90;;;;;;4988462;28;20184;-75
2022/01/28 03:55:52;;;;;;;6.33;1.40;;;4.00;99.90;;;;;;4986171;28;20200;-78
2022/01/28 03:58:18;;;;;;;12.00;2.27;;;4.10;99.90;;;;;;4967445;28;20185;-77
2022/01/28 04:00:44;;;;;;;8.60;2.03;;;4.10;99.90;;;;;;4985892;28;20800;-77
2022/01/28 04:13:46;;;;;;;10.77;2.20;;;3.90;99.90;;;;;;4985434;28;20527;-77
2022/01/28 04:18:46;;;;;;;7.77;1.73;;;3.80;99.90;;;;;;4985055;28;20191;-77
2022/01/28 04:21:12;;;;;;;8.90;1.90;;;3.80;99.90;;;;;;4967755;28;20192;-76
2022/01/28 04:23:39;;;;;;;6.00;1.60;;;3.80;99.90;;;;;;4985105;28;20772;-76
2022/01/28 04:26:04;;;;;;;9.43;2.33;;;3.80;99.90;;;;;;4985352;28;20255;-76
2022/01/28 04:28:30;;;;;;;6.27;1.37;;;3.70;99.90;;;;;;4967081;28;20212;-76
2022/01/28 04:30:56;;;;;;;9.13;2.00;;;3.60;99.90;;;;;;4968953;28;20271;-74
2022/01/28 04:33:22;;;;;;;8.47;1.77;;;3.40;99.90;;;;;;4985913;28;20582;-77
2022/01/28 04:35:50;;;;;;;6.77;1.60;;;3.30;99.90;;;;;;4985392;28;20208;-78
2022/01/28 04:40:55;;;;;;;9.90;1.40;;;3.30;99.90;;;;;;4991532;28;20654;-78
2022/01/28 04:43:28;;;;;;;8.87;1.83;;;3.30;99.90;;;;;;4973709;28;20181;-79
2022/01/28 04:46:04;;;;;;;7.63;1.73;;;3.30;99.90;;;;;;4991628;28;20270;-77
2022/01/28 04:48:41;;;;;;;6.00;1.10;;;3.30;99.90;;;;;;4989633;28;20239;-78
2022/01/28 04:59:01;;;;;;;6.00;1.57;;;3.60;99.90;;;;;;4992370;28;20184;-76
2022/01/28 05:10:04;;;;;;;8.30;2.33;;;3.60;99.90;;;;;;4992329;28;20266;-78
2022/01/28 05:28:13;;;;;;;7.53;1.63;;;3.60;99.90;;;;;;4990134;28;20207;-79
2022/01/28 05:30:39;;;;;;;5.80;1.30;;;3.60;99.90;;;;;;4972872;28;20262;-77
2022/01/28 05:33:04;;;;;;;5.40;1.47;;;3.60;99.90;;;;;;4990829;28;20184;-76
2022/01/28 05:35:31;;;;;;;6.17;1.63;;;3.60;99.90;;;;;;4973287;28;20204;-77
2022/01/28 05:37:56;;;;;;;6.00;1.70;;;3.50;99.90;;;;;;4990646;28;20570;-75
2022/01/28 05:40:22;;;;;;;11.03;1.63;;;3.50;99.90;;;;;;4990112;28;20188;-78
2022/01/28 05:42:48;;;;;;;5.90;2.00;;;3.60;99.90;;;;;;4973903;28;20188;-77
2022/01/28 05:45:13;;;;;;;5.97;1.37;;;3.60;99.90;;;;;;4990282;28;20195;-77
2022/01/28 05:47:39;;;;;;;6.43;1.17;;;3.60;99.90;;;;;;4990445;28;20224;-77
2022/01/28 05:50:05;;;;;;;8.67;1.30;;;3.60;99.90;;;;;;4989483;28;20268;-79
2022/01/28 05:52:32;;;;;;;8.97;1.30;;;3.60;99.90;;;;;;4972895;28;20230;-74
2022/01/28 05:54:58;;;;;;;7.83;1.50;;;3.60;99.90;;;;;;4991099;28;20674;-77
2022/01/28 05:57:24;;;;;;;5.03;1.50;;;3.60;99.90;;;;;;4991131;28;20291;-78
2022/01/28 05:59:50;;;;;;;5.90;1.50;;;3.50;99.90;;;;;;4987836;28;20257;-75
2022/01/28 06:02:17;;;;;;;5.27;1.60;;;3.50;99.90;;;;;;4972724;28;20256;-79
2022/01/28 06:04:43;;;;;;;5.00;1.27;;;3.50;99.90;;;;;;4990040;28;20183;-78
2022/01/28 06:07:09;;;;;;;3.47;1.13;;;3.50;99.90;;;;;;4989841;28;20204;-76
2022/01/28 06:09:34;;;;;;;6.47;1.60;;;3.50;99.90;;;;;;4972052;28;20215;-79
2022/01/28 06:12:00;;;;;;;8.10;2.00;;;3.40;99.90;;;;;;4970766;28;20624;-76
2022/01/28 06:14:27;;;;;;;7.07;1.30;;;3.40;99.90;;;;;;4986720;28;20361;-78
2022/01/28 06:16:52;;;;;;;6.50;1.83;;;3.40;99.90;;;;;;4988462;28;20232;-78
2022/01/28 06:19:18;;;;;;;4.70;1.50;;;3.30;99.90;;;;;;4971360;28;20616;-78
2022/01/28 06:21:43;;;;;;;7.90;1.93;;;3.30;99.90;;;;;;4988461;28;20576;-79
2022/01/28 06:24:09;;;;;;;6.47;1.77;;;3.20;99.90;;;;;;4970740;28;20191;-76
2022/01/28 06:26:35;;;;;;;6.13;1.80;;;3.30;99.90;;;;;;4989167;28;20208;-78
2022/01/28 06:29:00;;;;;;;7.43;1.77;;;3.20;99.90;;;;;;4989089;28;20214;-79
2022/01/28 06:31:26;;;;;;;6.07;1.60;;;3.30;99.90;;;;;;4989176;28;20240;-77
2022/01/28 06:33:52;;;;;;;6.00;1.77;;;3.30;99.90;;;;;;4989254;28;20670;-77
2022/01/28 06:36:20;;;;;;;5.43;1.23;;;3.30;99.90;;;;;;4989051;28;20200;-77
2022/01/28 06:38:45;;;;;;;5.70;1.50;;;3.30;99.90;;;;;;4987505;28;20362;-80
2022/01/28 06:41:11;;;;;;;11.03;1.80;;;3.30;99.90;;;;;;4989727;28;20176;-77
2022/01/28 06:43:36;;;;;;;6.93;1.67;;;3.30;99.90;;;;;;4988970;28;20196;-77
2022/01/28 06:46:02;;;;;;;9.17;1.87;;;3.30;99.90;;;;;;4989181;28;20762;-80
2022/01/28 06:48:27;;;;;;;8.70;2.10;;;3.30;99.90;;;;;;4988814;28;20650;-77
2022/01/28 06:50:53;;;;;;;6.30;1.70;;;3.30;99.90;;;;;;4988645;28;20184;-77
2022/01/28 06:53:18;;;;;;;5.53;0.90;;;3.30;99.90;;;;;;4988481;28;20530;-77
2022/01/28 06:55:44;;;;;;;7.67;1.90;;;3.30;99.90;;;;;;4970711;28;20335;-77
2022/01/28 06:58:10;;;;;;;6.97;1.33;;;3.30;99.90;;;;;;4988193;28;20560;-76
2022/01/28 07:00:37;;;;;;;6.03;1.40;;;3.30;99.90;;;;;;4970047;28;20188;-74
2022/01/28 07:03:14;;;;;;;3.43;1.17;;;3.30;99.90;;;;;;4988426;28;20230;-79
2022/01/28 07:05:40;;;;;;;5.93;1.50;;;3.30;99.90;;;;;;4987303;28;20755;-78
2022/01/28 07:08:07;;;;;;;6.00;1.43;;;3.30;99.90;;;;;;4987889;28;20235;-79
2022/01/28 07:10:34;;;;;;;2.97;1.30;;;3.40;99.90;;;;;;4970228;28;20202;-79
2022/01/28 07:13:00;;;;;;;9.10;1.43;;;3.40;99.90;;;;;;4988310;28;20188;-74
2022/01/28 07:15:26;;;;;;;9.20;1.63;;;3.40;99.90;;;;;;4988514;28;20231;-76
2022/01/28 07:17:54;;;;;;;5.90;1.33;;;3.40;99.90;;;;;;4988165;28;20196;-77
2022/01/28 07:20:19;;;;;;;7.27;2.00;;;3.30;99.90;;;;;;4970413;28;20192;-78
2022/01/28 07:22:45;;;;;;;12.20;1.70;;;3.40;99.90;;;;;;4989719;28;20176;-78
2022/01/28 07:25:11;;;;;;;6.77;2.03;;;3.30;99.90;;;;;;4988369;28;20689;-80
2022/01/28 07:27:36;;;;;;;7.80;2.13;;;3.30;99.90;;;;;;4989486;28;20669;-78
2022/01/28 07:30:03;;;;;;;5.97;2.00;;;3.40;99.90;;;;;;4988182;28;20212;-77
2022/01/28 07:32:28;;;;;;;9.30;2.20;;;3.40;99.90;;;;;;4971482;28;20183;-79
2022/01/28 07:34:54;;;;;;;4.90;1.70;;;3.40;99.90;;;;;;4988857;28;20176;-78
2022/01/28 07:37:20;;;;;;;9.30;1.70;;;3.40;99.90;;;;;;4984516;28;20219;-78
2022/01/28 07:39:45;;;;;;;7.43;1.50;;;3.30;99.90;;;;;;4985891;28;20488;-80
2022/01/28 07:42:11;;;;;;;8.13;1.33;;;3.30;99.90;;;;;;4986478;28;20254;-77
2022/01/28 07:44:37;;;;;;;10.20;2.23;;;3.40;99.90;;;;;;4986125;28;20192;-77
2022/01/28 07:47:03;;;;;;;9.97;1.90;;;3.40;99.90;;;;;;4968907;28;20232;-78
2022/01/28 07:49:29;;;;;;;6.63;1.50;;;3.40;99.90;;;;;;4968202;28;20235;-76
2022/01/28 07:51:54;;;;;;;7.20;1.60;;;3.40;99.90;;;;;;4986145;28;20263;-73
2022/01/28 07:54:20;;;;;;;4.03;1.20;;;3.50;99.90;;;;;;4984521;28;20192;-79
2022/01/28 07:56:47;;;;;;;7.53;2.53;;;3.60;99.90;;;;;;4983943;28;20208;-77
2022/01/28 07:59:13;;;;;;;8.30;2.53;;;3.60;99.90;;;;;;4985843;28;20194;-77
2022/01/28 08:01:39;;;;;;;9.33;2.17;;;3.60;99.90;;;;;;4986177;28;20248;-79
2022/01/28 08:04:04;;;;;;;9.17;2.97;;;3.70;99.90;;;;;;4985030;28;20229;-75
2022/01/28 08:06:30;;;;;;;6.83;1.67;;;3.60;99.90;;;;;;4967445;28;20204;-77
2022/01/28 08:08:58;;;;;;;10.60;1.70;;;3.70;99.90;;;;;;4984477;28;20208;-78
2022/01/28 08:11:24;;;;;;;9.70;2.33;;;3.70;99.90;;;;;;4982812;28;20180;-78
2022/01/28 08:13:50;;;;;;;10.10;1.87;;;3.80;99.90;;;;;;4967490;28;20196;-78
2022/01/28 08:16:15;;;;;;;13.20;3.80;;;3.70;99.90;;;;;;4967774;28;20204;-76
2022/01/28 08:18:41;;;;;;;13.30;4.07;;;3.80;99.90;;;;;;4990279;28;20180;-76
2022/01/28 08:21:06;;;;;;;14.13;3.33;;;3.70;99.90;;;;;;4989872;28;20196;-74
2022/01/28 08:23:32;;;;;;;6.40;1.90;;;3.80;99.90;;;;;;4990973;28;20780;-76
2022/01/28 08:25:58;;;;;;;10.77;2.33;;;3.70;99.90;;;;;;4990305;28;20208;-74
2022/01/28 08:28:24;;;;;;;5.37;1.57;;;3.80;99.90;;;;;;4991162;28;20899;-78
2022/01/28 08:30:49;;;;;;;11.50;2.23;;;3.80;99.90;;;;;;4973382;28;20313;-76
2022/01/28 08:33:15;;;;;;;10.27;2.10;;;3.90;99.90;;;;;;4989987;28;20194;-74
2022/01/28 08:35:41;;;;;;;6.03;1.70;;;3.90;99.90;;;;;;4970871;28;20184;-73
2022/01/28 08:38:14;;;;;;;9.27;2.10;;;3.90;99.90;;;;;;4988920;28;20678;-83
2022/01/28 08:40:41;;;;;;;8.47;2.43;;;3.80;99.90;;;;;;4973111;28;20208;-77
2022/01/28 08:43:06;;;;;;;9.17;2.27;;;3.90;99.90;;;;;;4973889;28;20234;-77
2022/01/28 08:45:32;;;;;;;8.53;1.90;;;3.90;99.90;;;;;;4970636;28;20263;-78
2022/01/28 08:47:57;;;;;;;10.50;2.53;;;3.90;99.90;;;;;;4991578;28;20212;-78
2022/01/28 08:50:23;;;;;;;8.93;1.60;;;3.90;99.90;;;;;;4992513;28;20185;-77
2022/01/28 08:52:48;;;;;;;8.30;1.60;;;3.90;99.90;;;;;;4992923;28;20187;-76
2022/01/28 08:55:15;;;;;;;15.93;2.97;;;3.90;99.90;;;;;;4974008;28;20180;-80
2022/01/28 08:57:43;;;;;;;8.33;2.70;;;3.90;99.90;;;;;;4975734;28;20264;-75
2022/01/28 09:00:13;;;;;;;10.43;2.10;;;4.00;99.90;;;;;;4974137;28;20180;-79
2022/01/28 09:02:41;;;;;;;10.43;2.50;;;3.90;99.90;;;;;;4975449;28;20180;-78
2022/01/28 09:05:07;;;;;;;11.67;1.83;;;4.10;99.90;;;;;;4992678;28;20186;-78
2022/01/28 09:07:32;;;;;;;7.40;1.77;;;4.10;99.90;;;;;;4974094;28;20200;-79
2022/01/28 09:10:04;;;;;;;9.40;2.23;;;4.10;99.90;;;;;;4974174;28;20180;-78
2022/01/28 09:12:46;;;;;;;10.07;1.97;;;4.00;99.90;;;;;;4991998;28;20235;-79
2022/01/28 09:15:13;;;;;;;10.53;1.87;;;4.10;99.90;;;;;;4990826;28;20188;-75
2022/01/28 09:17:38;;;;;;;8.50;1.87;;;4.10;99.90;;;;;;4975617;28;20196;-78
2022/01/28 09:20:04;;;;;;;12.37;2.40;;;4.10;99.90;;;;;;4992415;28;20239;-77
2022/01/28 09:22:30;;;;;;;9.43;2.10;;;4.10;99.90;;;;;;4992135;28;20184;-76
2022/01/28 09:24:56;;;;;;;8.33;2.17;;;4.20;99.90;;;;;;4991415;28;20183;-75
2022/01/28 09:27:21;;;;;;;7.87;1.90;;;4.20;99.90;;;;;;4992082;28;20231;-75
2022/01/28 09:29:47;;;;;;;6.37;2.17;;;4.20;99.90;;;;;;4991606;28;20212;-79
2022/01/28 09:32:13;;;;;;;7.83;2.30;;;4.30;99.90;;;;;;4992033;28;20614;-78
2022/01/28 09:34:38;;;;;;;8.33;1.80;;;4.30;99.90;;;;;;4974310;28;20215;-78
2022/01/28 09:37:04;;;;;;;9.00;2.27;;;4.40;99.90;;;;;;4974682;28;20195;-77
2022/01/28 09:39:32;;;;;;;8.50;2.10;;;4.40;99.90;;;;;;4991836;28;20200;-79
2022/01/28 09:42:02;;;;;;;14.03;2.40;;;4.40;99.90;;;;;;4989722;28;20413;-77
2022/01/28 09:44:30;;;;;;;6.67;1.90;;;4.50;99.90;;;;;;4991853;28;20191;-75
2022/01/28 09:46:58;;;;;;;8.17;2.50;;;4.50;99.90;;;;;;4995876;28;20218;-72
2022/01/28 09:49:25;;;;;;;12.43;2.87;;;4.60;99.90;;;;;;4991716;28;20686;-77
2022/01/28 09:51:50;;;;;;;9.40;2.33;;;4.70;99.90;;;;;;4973996;28;20177;-77
2022/01/28 09:54:16;;;;;;;9.60;3.53;;;4.80;99.90;;;;;;4991005;28;20195;-77
2022/01/28 09:56:41;;;;;;;11.47;3.70;;;4.80;99.90;;;;;;4973977;28;20513;-78
2022/01/28 09:59:07;;;;;;;8.53;2.67;;;4.90;99.90;;;;;;4990645;28;20188;-75
2022/01/28 10:01:33;;;;;;;13.83;2.33;;;4.90;99.90;;;;;;4990802;28;20242;-77
2022/01/28 10:04:05;;;;;;;9.80;2.40;;;5.00;99.90;;;;;;4989839;28;20622;-78
2022/01/28 10:06:35;;;;;;;9.47;2.37;;;5.20;99.90;;;;;;4990346;28;20263;-76
2022/01/28 10:09:10;;;;;;;9.83;2.83;;;5.30;99.90;;;;;;4990995;28;20216;-77
2022/01/28 10:11:37;;;;;;;8.37;2.93;;;5.40;99.90;;;;;;4990777;28;20191;-75
2022/01/28 10:14:16;;;;;;;11.83;2.20;;;5.50;99.90;;;;;;4990637;28;20188;-79
2022/01/28 10:16:42;;;;;;;10.53;2.87;;;5.70;99.90;;;;;;4973096;28;20204;-79
2022/01/28 10:19:10;;;;;;;10.87;2.37;;;5.70;99.90;;;;;;4972646;28;20223;-78
2022/01/28 10:21:36;;;;;;;7.70;2.27;;;5.80;99.90;;;;;;4973034;28;20199;-77
2022/01/28 10:24:07;;;;;;;10.63;1.93;;;5.80;99.90;;;;;;4972772;28;20203;-78
2022/01/28 10:26:39;;;;;;;12.43;3.77;;;5.90;99.90;;;;;;4972662;28;20234;-78
2022/01/28 10:29:07;;;;;;;6.13;2.43;;;5.80;99.90;;;;;;4972930;28;20204;-77
2022/01/28 10:31:57;;;;;;;7.73;2.40;;;5.70;99.90;;;;;;4973412;28;20248;-77
2022/01/28 10:34:37;;;;;;;7.67;2.10;;;5.60;99.90;;;;;;4973297;28;20264;-76
2022/01/28 10:37:11;;;;;;;9.70;2.00;;;5.70;99.90;;;;;;4990134;28;20196;-76
2022/01/28 10:39:42;;;;;;;11.83;2.27;;;5.90;99.90;;;;;;4990732;28;21112;-79
2022/01/28 10:42:09;;;;;;;9.87;2.53;;;6.00;99.90;;;;;;4990167;28;20276;-76
2022/01/28 10:45:10;;;;;;;9.60;3.10;;;6.10;99.90;;;;;;4988128;28;20191;-78
2022/01/28 10:47:42;;;;;;;10.23;2.47;;;6.10;99.90;;;;;;4989405;28;20226;-75
2022/01/28 10:50:27;;;;;;;11.90;2.63;;;5.90;99.90;;;;;;4990401;28;20194;-75
2022/01/28 10:53:13;;;;;;;6.23;2.27;;;5.90;99.90;;;;;;4989906;28;20701;-76
2022/01/28 10:55:49;;;;;;;10.37;2.17;;;5.90;99.90;;;;;;4988903;28;20180;-78
2022/01/28 10:58:17;;;;;;;9.73;2.73;;;5.90;99.90;;;;;;4989563;28;20641;-76
2022/01/28 11:00:48;;;;;;;11.07;2.40;;;5.90;99.90;;;;;;4990289;28;20195;-74
2022/01/28 11:03:16;;;;;;;8.40;2.43;;;5.90;99.90;;;;;;4990438;28;20180;-79
2022/01/28 11:05:45;;;;;;;10.77;2.20;;;6.10;99.90;;;;;;4989710;28;20184;-78
2022/01/28 11:08:12;;;;;;;11.73;2.17;;;6.20;99.90;;;;;;4989411;28;20208;-76
2022/01/28 11:10:40;;;;;;;10.40;2.67;;;6.00;99.90;;;;;;4989879;28;20208;-76
2022/01/28 11:13:05;;;;;;;6.23;1.90;;;6.10;99.90;;;;;;4990358;28;20199;-79
2022/01/28 11:15:32;;;;;;;8.17;1.87;;;6.20;99.90;;;;;;4990377;28;20184;-73
2022/01/28 11:18:00;;;;;;;10.20;2.37;;;6.20;99.90;;;;;;4989926;28;20207;-79
2022/01/28 11:20:44;;;;;;;8.13;1.60;;;6.10;99.90;;;;;;4972579;28;20210;-78
2022/01/28 11:23:30;;;;;;;8.23;2.37;;;5.90;99.90;;;;;;4989260;28;20203;-74
2022/01/28 11:26:20;;;;;;;9.10;2.13;;;5.90;99.90;;;;;;4989431;28;20200;-75
2022/01/28 11:28:47;;;;;;;13.30;2.27;;;6.00;99.90;;;;;;4971806;28;20228;-76
2022/01/28 11:31:15;;;;;;;12.60;1.93;;;6.00;99.90;;;;;;4971189;28;20188;-75
2022/01/28 11:33:49;;;;;;;11.60;1.80;;;6.10;99.90;;;;;;5005082;28;20179;-73
2022/01/28 11:36:35;;;;;;;8.63;2.40;;;6.10;99.90;;;;;;5000455;28;20620;-79
2022/01/28 11:39:08;;;;;;;7.37;1.87;;;6.20;99.90;;;;;;4990601;28;20196;-78
2022/01/28 11:41:35;;;;;;;8.30;1.70;;;6.20;99.90;;;;;;4973466;28;20613;-79
2022/01/28 11:44:01;;;;;;;9.73;1.97;;;6.20;99.90;;;;;;4973002;28;20242;-80
2022/01/28 11:46:31;;;;;;;8.93;2.13;;;6.10;99.90;;;;;;4992034;28;20969;-78
2022/01/28 11:49:02;;;;;;;7.57;2.13;;;6.20;99.90;;;;;;4976837;28;20220;-79
2022/01/28 11:51:40;;;;;;;10.60;2.40;;;6.20;99.90;;;;;;4975707;28;20647;-75
2022/01/28 11:54:09;;;;;;;8.13;2.43;;;6.00;99.90;;;;;;4993579;28;20184;-77
2022/01/28 11:56:57;;;;;;;10.07;2.37;;;6.00;99.90;;;;;;4973782;28;20294;-77
2022/01/28 11:59:27;;;;;;;7.53;2.27;;;5.90;99.90;;;;;;4974503;28;20191;-77
2022/01/28 12:01:52;;;;;;;9.87;1.77;;;5.80;99.90;;;;;;4974951;28;20181;-80
2022/01/28 12:04:24;;;;;;;8.83;1.70;;;5.80;99.90;;;;;;4991431;28;20211;-75
2022/01/28 12:06:58;;;;;;;8.10;3.10;;;5.90;99.90;;;;;;4986265;28;20212;-77
2022/01/28 12:09:26;;;;;;;5.30;1.50;;;6.00;99.90;;;;;;4984880;28;20218;-75
2022/01/28 12:11:51;;;;;;;9.70;1.87;;;6.00;99.90;;;;;;4969345;28;20184;-75
2022/01/28 12:14:49;;;;;;;6.30;1.47;;;6.10;99.90;;;;;;4972899;28;20188;-76
2022/01/28 12:17:30;;;;;;;10.03;2.20;;;6.10;99.90;;;;;;4986388;28;20282;-77
2022/01/28 12:20:24;;;;;;;6.53;2.33;;;6.20;99.90;;;;;;4990709;28;20250;-75
2022/01/28 12:23:11;;;;;;;11.13;2.17;;;6.10;99.90;;;;;;4990857;28;20223;-77
2022/01/28 12:25:46;;;;;;;11.73;2.20;;;6.20;99.90;;;;;;4990579;28;20195;-79
2022/01/28 12:28:15;;;;;;;9.40;2.47;;;6.20;99.90;;;;;;4989892;28;20212;-80
2022/01/28 12:30:58;;;;;;;8.37;1.97;;;6.30;99.90;;;;;;4989625;28;20329;-80
2022/01/28 12:33:25;;;;;;;15.93;2.63;;;6.30;99.90;;;;;;4971321;28;20184;-77
2022/01/28 12:35:55;;;;;;;6.43;1.87;;;6.10;99.90;;;;;;4989796;28;20354;-78
2022/01/28 12:38:23;;;;;;;7.30;2.03;;;6.00;99.90;;;;;;4988735;28;20188;-75
2022/01/28 12:40:52;;;;;;;8.87;2.07;;;6.00;99.90;;;;;;4972376;28;20200;-77
2022/01/28 12:43:21;;;;;;;10.70;2.27;;;6.00;99.90;;;;;;4988416;28;20566;-76
2022/01/28 12:46:08;;;;;;;8.40;3.07;;;6.10;99.90;;;;;;4990357;28;20275;-77
2022/01/28 12:48:34;;;;;;;10.50;2.73;;;6.20;99.90;;;;;;4986063;28;20204;-73
2022/01/28 12:51:02;;;;;;;6.57;2.33;;;6.10;99.90;;;;;;5000552;28;20199;-73
2022/01/28 12:53:39;;;;;;;12.00;2.50;;;6.10;99.90;;;;;;4984635;28;20184;-75
2022/01/28 12:56:07;;;;;;;7.27;2.03;;;6.00;99.90;;;;;;4978625;28;20787;-77
2022/01/28 12:58:35;;;;;;;7.73;1.80;;;6.00;99.90;;;;;;4991622;28;20224;-74
2022/01/28 13:01:12;;;;;;;10.20;2.33;;;6.00;99.90;;;;;;4991549;28;20679;-78
2022/01/28 13:09:09;;;;;;;9.67;2.03;;;6.30;99.90;;;;;;4986528;28;20211;-75
2022/01/28 13:11:41;;;;;;;7.90;2.13;;;6.30;99.90;;;;;;4971266;28;20278;-76
2022/01/28 13:14:07;;;;;;;8.63;1.77;;;6.40;99.90;;;;;;4988886;28;20188;-75
2022/01/28 13:16:35;;;;;;;5.83;1.70;;;6.30;99.90;;;;;;4987050;28;20222;-78
2022/01/28 13:19:02;;;;;;;8.07;1.87;;;6.10;99.90;;;;;;4988285;28;20194;-77
2022/01/28 13:21:29;;;;;;;4.67;1.77;;;6.00;99.90;;;;;;4986523;28;20262;-77
2022/01/28 13:24:21;;;;;;;6.40;2.17;;;6.00;99.90;;;;;;4988418;28;20184;-77
2022/01/28 13:27:06;;;;;;;9.53;2.50;;;6.00;99.90;;;;;;4986417;28;20212;-75
2022/01/28 13:29:43;;;;;;;10.00;1.70;;;5.90;99.90;;;;;;4988295;28;20211;-76
2022/01/28 13:32:11;;;;;;;8.50;1.73;;;5.80;99.90;;;;;;4988077;28;20228;-78
2022/01/28 13:34:48;;;;;;;8.20;1.63;;;5.80;99.90;;;;;;4988180;28;20235;-79
2022/01/28 13:37:41;;;;;;;5.70;1.40;;;5.80;99.90;;;;;;4971189;28;20873;-77
2022/01/28 13:40:10;;;;;;;10.37;2.50;;;5.70;99.90;;;;;;4987971;28;20777;-77
2022/01/28 13:42:36;;;;;;;8.43;1.83;;;5.70;99.90;;;;;;4969587;28;20184;-75
2022/01/28 13:45:05;;;;;;;5.93;1.60;;;5.70;99.90;;;;;;4969344;28;20199;-74
2022/01/28 13:47:52;;;;;;;11.97;2.13;;;5.60;99.90;;;;;;4985461;28;20231;-76
2022/01/28 13:50:28;;;;;;;7.53;2.10;;;5.70;99.90;;;;;;4986968;28;20194;-77
2022/01/28 13:54:15;;;;;;;8.20;1.77;;;5.70;99.90;;;;;;4969151;28;20187;-76
2022/01/28 13:56:07;;;;;;;9.57;1.80;;;5.60;99.90;;;;;;4986791;28;20212;-77
2022/01/28 13:58:51;;;;;;;8.53;2.07;;;5.60;99.90;;;;;;4986478;28;20188;-76
2022/01/28 14:01:18;;;;;;;11.07;2.53;;;5.60;99.90;;;;;;4989179;28;20430;-73
2022/01/28 14:03:51;;;;;;;9.73;2.00;;;5.70;99.90;;;;;;4974648;28;20264;-78
2022/01/28 14:06:19;;;;;;;10.53;2.60;;;5.70;99.90;;;;;;4986229;28;20215;-76
2022/01/28 14:08:52;;;;;;;5.73;1.50;;;5.60;99.90;;;;;;4986807;28;20267;-76
2022/01/28 14:11:37;;;;;;;8.67;1.90;;;5.50;99.90;;;;;;4973703;28;20199;-72
2022/01/28 14:14:16;;;;;;;5.70;1.60;;;5.40;99.90;;;;;;4999997;28;20184;-75
2022/01/28 14:16:46;;;;;;;9.50;1.90;;;5.40;99.90;;;;;;4997762;28;20196;-77
2022/01/28 14:19:13;;;;;;;5.70;1.30;;;5.40;99.90;;;;;;4989483;28;20211;-76
2022/01/28 14:21:40;;;;;;;8.57;2.13;;;5.40;99.90;;;;;;4986716;28;20266;-77
2022/01/28 14:24:07;;;;;;;11.43;3.27;;;5.40;99.90;;;;;;4985408;28;20223;-74
2022/01/28 14:26:44;;;;;;;8.87;2.33;;;5.30;99.90;;;;;;4985007;28;20204;-77
2022/01/28 14:31:52;;;;;;;11.07;2.43;;;5.30;99.90;;;;;;4998515;28;20283;-75
2022/01/28 14:34:18;;;;;;;9.07;3.10;;;5.40;99.90;;;;;;4986631;28;20200;-79
2022/01/28 14:36:44;;;;;;;11.90;3.03;;;5.30;99.90;;;;;;4986170;28;20781;-73
2022/01/28 14:39:11;;;;;;;14.43;3.83;;;5.30;99.90;;;;;;4969126;28;20219;-76
2022/01/28 14:41:36;;;;;;;11.33;3.10;;;5.30;99.90;;;;;;4987109;28;20264;-77
2022/01/28 14:44:03;;;;;;;10.87;4.27;;;5.30;99.90;;;;;;4968012;28;20299;-77
2022/01/28 14:46:30;;;;;;;10.13;3.33;;;5.40;99.90;;;;;;4985183;28;20211;-77
2022/01/28 14:48:57;;;;;;;12.50;3.23;;;5.50;99.90;;;;;;4985431;28;20204;-78